Aviation Digital Data Service (ADDS)

Output produced by METARs form (1347 UTC 19 August 2019)
found at http://aviationweather.gov/metar/data/
 
TAF ETMN 191324Z 1914/1923 25012KT 9999 NSW SCT030 
     TEMPO 1914/1923 26015G25KT 5000 SHRA SCT012 BKN020CB